PWSweather.com
Personal Weather Stations
Station Observations
SHAHALMS1
Eftra, Falkenberg, HA

EftraFalkenberg, HA

Lat: 56.85, Lon: 12.65

Elevation: 140

Station Type:

http://hem.passagen.se/risarp101

High Low Average
Temperature 71.2°F21.8°C 56.7°F13.7°C 63.2°F17.3°C
Dew Point 62.1°F16.7°C 53.5°F11.9°C 56.8°F13.8°C
Winds 6.0 mph 9.7 kmh Calm Calm 1.0 mph SE1.6 kmh SE
Wind Gusts 12.5 mph20.1 kmh -- 4.0 mph6.4 kmh
Humidity 91% 65% 80%
Pressure 30.36 in1028.1 mb 30.27 in1025.1 mb -
Precipitation 0.00 in0.0 mm - -
Hour Temp Dew Point Humidity Winds Wind Gusts Pressure Precip Precip Rate Daily Precip Total
12:00 AM 59.5°F15.3°C 56.0°F13.3°C 88% Calm Calm -- 30.27 in1025.1 mb 0.00 in0.0 mm 0.00 in0.0 mm 0.00 in0.0 mm
12:15 AM 59.4°F15.2°C 55.8°F13.2°C 88% Calm Calm -- 30.27 in1025.1 mb 0.00 in0.0 mm 0.00 in0.0 mm 0.00 in0.0 mm
12:30 AM 59.2°F15.1°C 55.6°F13.1°C 88% Calm Calm -- 30.27 in1025.1 mb 0.00 in0.0 mm 0.00 in0.0 mm 0.00 in0.0 mm
12:45 AM 59.2°F15.1°C 55.6°F13.1°C 88% Calm Calm -- 30.27 in1025.1 mb 0.00 in0.0 mm 0.00 in0.0 mm 0.00 in0.0 mm
01:00 AM 59.0°F15.0°C 55.4°F13.0°C 88% Calm Calm -- 30.27 in1025.1 mb 0.00 in0.0 mm 0.00 in0.0 mm 0.00 in0.0 mm
01:15 AM 59.0°F15.0°C 55.8°F13.2°C 89% Calm Calm -- 30.27 in1025.1 mb 0.00 in0.0 mm 0.00 in0.0 mm 0.00 in0.0 mm
01:30 AM 59.0°F15.0°C 55.8°F13.2°C 89% Calm Calm -- 30.30 in1026.1 mb 0.00 in0.0 mm 0.00 in0.0 mm 0.00 in0.0 mm
01:45 AM 59.0°F15.0°C 55.8°F13.2°C 89% Calm Calm -- 30.30 in1026.1 mb 0.00 in0.0 mm 0.00 in0.0 mm 0.00 in0.0 mm
02:00 AM 58.8°F14.9°C 55.6°F13.1°C 89% Calm Calm -- 30.30 in1026.1 mb 0.00 in0.0 mm 0.00 in0.0 mm 0.00 in0.0 mm
02:15 AM 58.8°F14.9°C 55.6°F13.1°C 89% Calm Calm -- 30.30 in1026.1 mb 0.00 in0.0 mm 0.00 in0.0 mm 0.00 in0.0 mm
02:30 AM 58.6°F14.8°C 55.4°F13.0°C 89% Calm Calm -- 30.30 in1026.1 mb 0.00 in0.0 mm 0.00 in0.0 mm 0.00 in0.0 mm
02:45 AM 58.6°F14.8°C 55.4°F13.0°C 89% Calm Calm -- 30.30 in1026.1 mb 0.00 in0.0 mm 0.00 in0.0 mm 0.00 in0.0 mm
03:00 AM 58.3°F14.6°C 55.1°F12.8°C 89% Calm Calm -- 30.30 in1026.1 mb 0.00 in0.0 mm 0.00 in0.0 mm 0.00 in0.0 mm
03:15 AM 57.9°F14.4°C 54.7°F12.6°C 89% Calm Calm -- 30.30 in1026.1 mb 0.00 in0.0 mm 0.00 in0.0 mm 0.00 in0.0 mm
03:30 AM 57.6°F14.2°C 54.3°F12.4°C 89% Calm Calm -- 30.30 in1026.1 mb 0.00 in0.0 mm 0.00 in0.0 mm 0.00 in0.0 mm
03:45 AM 57.0°F13.9°C 53.8°F12.1°C 89% Calm Calm -- 30.30 in1026.1 mb 0.00 in0.0 mm 0.00 in0.0 mm 0.00 in0.0 mm
04:02 AM 56.7°F13.7°C 53.5°F11.9°C 89% Calm Calm -- 30.30 in1026.1 mb 0.00 in0.0 mm 0.00 in0.0 mm 0.00 in0.0 mm
04:15 AM 56.8°F13.8°C 53.9°F12.2°C 90% Calm Calm -- 30.30 in1026.1 mb 0.00 in0.0 mm 0.00 in0.0 mm 0.00 in0.0 mm
04:30 AM 56.8°F13.8°C 53.9°F12.2°C 90% Calm Calm -- 30.30 in1026.1 mb 0.00 in0.0 mm 0.00 in0.0 mm 0.00 in0.0 mm
04:45 AM 56.8°F13.8°C 53.9°F12.2°C 90% Calm Calm -- 30.30 in1026.1 mb 0.00 in0.0 mm 0.00 in0.0 mm 0.00 in0.0 mm
05:00 AM 56.8°F13.8°C 53.9°F12.2°C 90% Calm Calm -- 30.30 in1026.1 mb 0.00 in0.0 mm 0.00 in0.0 mm 0.00 in0.0 mm
05:15 AM 56.8°F13.8°C 53.9°F12.2°C 90% 0.7 mph E1.1 kmh E 3.6 mph5.8 kmh 30.30 in1026.1 mb 0.00 in0.0 mm 0.00 in0.0 mm 0.00 in0.0 mm
05:30 AM 57.2°F14.0°C 54.6°F12.6°C 91% 0.3 mph E0.5 kmh E 3.2 mph5.1 kmh 30.30 in1026.1 mb 0.00 in0.0 mm 0.00 in0.0 mm 0.00 in0.0 mm
05:45 AM 57.4°F14.1°C 54.8°F12.7°C 91% 2.4 mph E3.9 kmh E 6.4 mph10.3 kmh 30.30 in1026.1 mb 0.00 in0.0 mm 0.00 in0.0 mm 0.00 in0.0 mm
06:00 AM 57.6°F14.2°C 55.0°F12.8°C 91% 3.4 mph E5.5 kmh E 6.8 mph10.9 kmh 30.30 in1026.1 mb 0.00 in0.0 mm 0.00 in0.0 mm 0.00 in0.0 mm
06:15 AM 57.7°F14.3°C 55.1°F12.8°C 91% 3.2 mph E5.1 kmh E 9.7 mph15.6 kmh 30.30 in1026.1 mb 0.00 in0.0 mm 0.00 in0.0 mm 0.00 in0.0 mm
06:30 AM 58.1°F14.5°C 55.5°F13.1°C 91% 2.1 mph E3.4 kmh E 6.8 mph10.9 kmh 30.30 in1026.1 mb 0.00 in0.0 mm 0.00 in0.0 mm 0.00 in0.0 mm
06:45 AM 58.5°F14.7°C 55.8°F13.2°C 91% 0.6 mph E1.0 kmh E 6.1 mph9.8 kmh 30.30 in1026.1 mb 0.00 in0.0 mm 0.00 in0.0 mm 0.00 in0.0 mm
07:00 AM 59.0°F15.0°C 56.4°F13.6°C 91% Calm Calm -- 30.30 in1026.1 mb 0.00 in0.0 mm 0.00 in0.0 mm 0.00 in0.0 mm
07:15 AM 59.7°F15.4°C 57.1°F13.9°C 91% Calm Calm -- 30.33 in1027.1 mb 0.00 in0.0 mm 0.00 in0.0 mm 0.00 in0.0 mm
07:30 AM 60.6°F15.9°C 58.0°F14.4°C 91% 0.2 mph N0.3 kmh N 2.5 mph4.0 kmh 30.33 in1027.1 mb 0.00 in0.0 mm 0.00 in0.0 mm 0.00 in0.0 mm
07:45 AM 61.3°F16.3°C 58.4°F14.7°C 90% 0.9 mph N1.4 kmh N 4.7 mph7.6 kmh 30.33 in1027.1 mb 0.00 in0.0 mm 0.00 in0.0 mm 0.00 in0.0 mm
08:00 AM 61.9°F16.6°C 58.9°F14.9°C 90% 1.2 mph N1.9 kmh N 5.0 mph8.0 kmh 30.33 in1027.1 mb 0.00 in0.0 mm 0.00 in0.0 mm 0.00 in0.0 mm
08:15 AM 62.4°F16.9°C 59.1°F15.1°C 89% 0.3 mph N0.5 kmh N 3.9 mph6.3 kmh 30.36 in1028.1 mb 0.00 in0.0 mm 0.00 in0.0 mm 0.00 in0.0 mm
08:30 AM 63.1°F17.3°C 59.2°F15.1°C 87% 1.0 mph N1.6 kmh N 4.3 mph6.9 kmh 30.33 in1027.1 mb 0.00 in0.0 mm 0.00 in0.0 mm 0.00 in0.0 mm
08:45 AM 64.2°F17.9°C 60.3°F15.7°C 87% 2.0 mph E3.2 kmh E 7.9 mph12.7 kmh 30.30 in1026.1 mb 0.00 in0.0 mm 0.00 in0.0 mm 0.00 in0.0 mm
09:00 AM 64.9°F18.3°C 60.6°F15.9°C 86% 1.0 mph E1.6 kmh E 6.1 mph9.8 kmh 30.30 in1026.1 mb 0.00 in0.0 mm 0.00 in0.0 mm 0.00 in0.0 mm
09:15 AM 65.7°F18.7°C 61.0°F16.1°C 85% 4.0 mph E6.4 kmh E 7.9 mph12.7 kmh 30.30 in1026.1 mb 0.00 in0.0 mm 0.00 in0.0 mm 0.00 in0.0 mm
09:30 AM 66.0°F18.9°C 60.7°F15.9°C 83% 0.5 mph E0.8 kmh E 5.7 mph9.2 kmh 30.33 in1027.1 mb 0.00 in0.0 mm 0.00 in0.0 mm 0.00 in0.0 mm
09:45 AM 65.8°F18.8°C 59.5°F15.3°C 80% Calm Calm -- 30.33 in1027.1 mb 0.00 in0.0 mm 0.00 in0.0 mm 0.00 in0.0 mm
10:00 AM 66.4°F19.1°C 59.3°F15.2°C 78% 0.9 mph E1.4 kmh E 6.1 mph9.8 kmh 30.33 in1027.1 mb 0.00 in0.0 mm 0.00 in0.0 mm 0.00 in0.0 mm
10:15 AM 66.9°F19.4°C 59.1°F15.1°C 76% 1.2 mph SE1.9 kmh SE 5.7 mph9.2 kmh 30.30 in1026.1 mb 0.00 in0.0 mm 0.00 in0.0 mm 0.00 in0.0 mm
10:30 AM 67.5°F19.7°C 59.3°F15.2°C 75% 1.4 mph NE2.3 kmh NE 6.1 mph9.8 kmh 30.33 in1027.1 mb 0.00 in0.0 mm 0.00 in0.0 mm 0.00 in0.0 mm
10:45 AM 68.2°F20.1°C 60.3°F15.7°C 76% 1.5 mph WNW2.4 kmh WNW 6.8 mph10.9 kmh 30.30 in1026.1 mb 0.00 in0.0 mm 0.00 in0.0 mm 0.00 in0.0 mm
11:00 AM 69.4°F20.8°C 61.5°F16.4°C 76% 1.3 mph S2.1 kmh S 6.1 mph9.8 kmh 30.30 in1026.1 mb 0.00 in0.0 mm 0.00 in0.0 mm 0.00 in0.0 mm
11:15 AM 70.5°F21.4°C 61.8°F16.6°C 74% 2.2 mph SW3.5 kmh SW 6.8 mph10.9 kmh 30.30 in1026.1 mb 0.00 in0.0 mm 0.00 in0.0 mm 0.00 in0.0 mm
11:30 AM 71.2°F21.8°C 62.1°F16.7°C 73% 3.8 mph WSW6.1 kmh WSW 8.9 mph14.3 kmh 30.30 in1026.1 mb 0.00 in0.0 mm 0.00 in0.0 mm 0.00 in0.0 mm
11:45 AM 71.2°F21.8°C 61.0°F16.1°C 70% 2.5 mph SW4.0 kmh SW 9.3 mph15.0 kmh 30.30 in1026.1 mb 0.00 in0.0 mm 0.00 in0.0 mm 0.00 in0.0 mm
12:01 PM 70.7°F21.5°C 60.4°F15.8°C 70% 2.4 mph WSW3.9 kmh WSW 8.9 mph14.3 kmh 30.30 in1026.1 mb 0.00 in0.0 mm 0.00 in0.0 mm 0.00 in0.0 mm
12:15 PM 70.7°F21.5°C 59.6°F15.3°C 68% 2.0 mph W3.2 kmh W 6.4 mph10.3 kmh 30.30 in1026.1 mb 0.00 in0.0 mm 0.00 in0.0 mm 0.00 in0.0 mm
12:30 PM 70.5°F21.4°C 59.0°F15.0°C 67% 2.8 mph WNW4.5 kmh WNW 8.9 mph14.3 kmh 30.33 in1027.1 mb 0.00 in0.0 mm 0.00 in0.0 mm 0.00 in0.0 mm
12:45 PM 70.2°F21.2°C 59.1°F15.1°C 68% 2.6 mph W4.2 kmh W 6.8 mph10.9 kmh 30.30 in1026.1 mb 0.00 in0.0 mm 0.00 in0.0 mm 0.00 in0.0 mm
01:00 PM 70.0°F21.1°C 58.9°F14.9°C 68% 3.0 mph W4.8 kmh W 10.4 mph16.7 kmh 30.33 in1027.1 mb 0.00 in0.0 mm 0.00 in0.0 mm 0.00 in0.0 mm
01:15 PM 70.2°F21.2°C 59.5°F15.3°C 69% 3.2 mph W5.1 kmh W 11.1 mph17.9 kmh 30.36 in1028.1 mb 0.00 in0.0 mm 0.00 in0.0 mm 0.00 in0.0 mm
01:30 PM 70.2°F21.2°C 59.1°F15.1°C 68% 3.5 mph W5.6 kmh W 8.6 mph13.8 kmh 30.33 in1027.1 mb 0.00 in0.0 mm 0.00 in0.0 mm 0.00 in0.0 mm
01:45 PM 69.6°F20.9°C 57.8°F14.3°C 66% 4.5 mph WNW7.2 kmh WNW 12.5 mph20.1 kmh 30.30 in1026.1 mb 0.00 in0.0 mm 0.00 in0.0 mm 0.00 in0.0 mm
02:00 PM 69.6°F20.9°C 57.8°F14.3°C 66% 3.0 mph WNW4.8 kmh WNW 8.6 mph13.8 kmh 30.33 in1027.1 mb 0.00 in0.0 mm 0.00 in0.0 mm 0.00 in0.0 mm
02:15 PM 69.4°F20.8°C 57.6°F14.2°C 66% 3.8 mph W6.1 kmh W 8.6 mph13.8 kmh 30.33 in1027.1 mb 0.00 in0.0 mm 0.00 in0.0 mm 0.00 in0.0 mm
02:30 PM 69.6°F20.9°C 58.2°F14.6°C 67% 2.8 mph W4.5 kmh W 9.7 mph15.6 kmh 30.33 in1027.1 mb 0.00 in0.0 mm 0.00 in0.0 mm 0.00 in0.0 mm
02:45 PM 69.8°F21.0°C 58.3°F14.6°C 67% 1.7 mph W2.7 kmh W 5.7 mph9.2 kmh 30.33 in1027.1 mb 0.00 in0.0 mm 0.00 in0.0 mm 0.00 in0.0 mm
03:00 PM 69.8°F21.0°C 58.3°F14.6°C 67% 2.4 mph W3.9 kmh W 6.4 mph10.3 kmh 30.33 in1027.1 mb 0.00 in0.0 mm 0.00 in0.0 mm 0.00 in0.0 mm
03:15 PM 69.3°F20.7°C 57.8°F14.3°C 67% 0.6 mph WNW1.0 kmh WNW 5.0 mph8.0 kmh 30.33 in1027.1 mb 0.00 in0.0 mm 0.00 in0.0 mm 0.00 in0.0 mm
03:30 PM 69.1°F20.6°C 57.7°F14.3°C 67% 0.3 mph W0.5 kmh W 5.4 mph8.7 kmh 30.33 in1027.1 mb 0.00 in0.0 mm 0.00 in0.0 mm 0.00 in0.0 mm
03:45 PM 69.8°F21.0°C 57.9°F14.4°C 66% 2.2 mph WNW3.5 kmh WNW 6.8 mph10.9 kmh 30.33 in1027.1 mb 0.00 in0.0 mm 0.00 in0.0 mm 0.00 in0.0 mm
04:00 PM 69.8°F21.0°C 57.5°F14.2°C 65% 0.7 mph NW1.1 kmh NW 5.4 mph8.7 kmh 30.30 in1026.1 mb 0.00 in0.0 mm 0.00 in0.0 mm 0.00 in0.0 mm
04:15 PM 69.8°F21.0°C 57.5°F14.2°C 65% 1.6 mph WNW2.6 kmh WNW 5.7 mph9.2 kmh 30.30 in1026.1 mb 0.00 in0.0 mm 0.00 in0.0 mm 0.00 in0.0 mm
04:30 PM 69.8°F21.0°C 57.5°F14.2°C 65% 0.3 mph NW0.5 kmh NW 2.5 mph4.0 kmh 30.30 in1026.1 mb 0.00 in0.0 mm 0.00 in0.0 mm 0.00 in0.0 mm
04:45 PM 69.6°F20.9°C 57.3°F14.1°C 65% 0.3 mph W0.5 kmh W 3.9 mph6.3 kmh 30.30 in1026.1 mb 0.00 in0.0 mm 0.00 in0.0 mm 0.00 in0.0 mm
05:00 PM 69.4°F20.8°C 57.6°F14.2°C 66% 1.4 mph W2.3 kmh W 4.7 mph7.6 kmh 30.30 in1026.1 mb 0.00 in0.0 mm 0.00 in0.0 mm 0.00 in0.0 mm
05:15 PM 68.9°F20.5°C 57.5°F14.2°C 67% 1.7 mph W2.7 kmh W 5.4 mph8.7 kmh 30.30 in1026.1 mb 0.00 in0.0 mm 0.00 in0.0 mm 0.00 in0.0 mm
05:30 PM 68.2°F20.1°C 57.2°F14.0°C 68% 1.0 mph WSW1.6 kmh WSW 4.7 mph7.6 kmh 30.30 in1026.1 mb 0.00 in0.0 mm 0.00 in0.0 mm 0.00 in0.0 mm
05:45 PM 67.6°F19.8°C 57.5°F14.2°C 70% Calm Calm -- 30.30 in1026.1 mb 0.00 in0.0 mm 0.00 in0.0 mm 0.00 in0.0 mm
06:00 PM 67.3°F19.6°C 57.6°F14.2°C 71% 0.3 mph W0.5 kmh W 3.9 mph6.3 kmh 30.30 in1026.1 mb 0.00 in0.0 mm 0.00 in0.0 mm 0.00 in0.0 mm
06:15 PM 66.7°F19.3°C 57.0°F13.9°C 71% 0.1 mph NW0.2 kmh NW 3.2 mph5.1 kmh 30.30 in1026.1 mb 0.00 in0.0 mm 0.00 in0.0 mm 0.00 in0.0 mm
06:30 PM 66.2°F19.0°C 56.9°F13.8°C 72% 0.8 mph N1.3 kmh N 5.0 mph8.0 kmh 30.30 in1026.1 mb 0.00 in0.0 mm 0.00 in0.0 mm 0.00 in0.0 mm
06:45 PM 65.5°F18.6°C 56.6°F13.7°C 73% Calm Calm 1.4 mph2.3 kmh 30.27 in1025.1 mb 0.00 in0.0 mm 0.00 in0.0 mm 0.00 in0.0 mm
07:00 PM 64.4°F18.0°C 55.9°F13.3°C 74% Calm Calm -- 30.27 in1025.1 mb 0.00 in0.0 mm 0.00 in0.0 mm 0.00 in0.0 mm
07:15 PM 63.7°F17.6°C 55.6°F13.1°C 75% Calm Calm -- 30.30 in1026.1 mb 0.00 in0.0 mm 0.00 in0.0 mm 0.00 in0.0 mm
07:30 PM 63.0°F17.2°C 55.3°F12.9°C 76% Calm Calm -- 30.27 in1025.1 mb 0.00 in0.0 mm 0.00 in0.0 mm 0.00 in0.0 mm
07:45 PM 62.2°F16.8°C 55.3°F12.9°C 78% Calm Calm -- 30.27 in1025.1 mb 0.00 in0.0 mm 0.00 in0.0 mm 0.00 in0.0 mm
08:01 PM 61.7°F16.5°C 54.8°F12.7°C 78% Calm Calm -- 30.27 in1025.1 mb 0.00 in0.0 mm 0.00 in0.0 mm 0.00 in0.0 mm
08:15 PM 61.0°F16.1°C 54.4°F12.4°C 79% Calm Calm -- 30.27 in1025.1 mb 0.00 in0.0 mm 0.00 in0.0 mm 0.00 in0.0 mm
08:30 PM 60.6°F15.9°C 54.1°F12.3°C 79% Calm Calm -- 30.27 in1025.1 mb 0.00 in0.0 mm 0.00 in0.0 mm 0.00 in0.0 mm
08:45 PM 60.3°F15.7°C 54.1°F12.3°C 80% Calm Calm -- 30.27 in1025.1 mb 0.00 in0.0 mm 0.00 in0.0 mm 0.00 in0.0 mm
09:00 PM 59.7°F15.4°C 53.9°F12.2°C 81% 0.2 mph SE0.3 kmh SE 5.0 mph8.0 kmh 30.27 in1025.1 mb 0.00 in0.0 mm 0.00 in0.0 mm 0.00 in0.0 mm
09:15 PM 59.5°F15.3°C 54.4°F12.4°C 83% 1.1 mph ESE1.8 kmh ESE 4.7 mph7.6 kmh 30.27 in1025.1 mb 0.00 in0.0 mm 0.00 in0.0 mm 0.00 in0.0 mm
09:30 PM 59.2°F15.1°C 54.0°F12.2°C 83% 0.5 mph ESE0.8 kmh ESE 5.4 mph8.7 kmh 30.27 in1025.1 mb 0.00 in0.0 mm 0.00 in0.0 mm 0.00 in0.0 mm
09:45 PM 59.2°F15.1°C 54.7°F12.6°C 85% 4.8 mph SE7.7 kmh SE 8.9 mph14.3 kmh 30.27 in1025.1 mb 0.00 in0.0 mm 0.00 in0.0 mm 0.00 in0.0 mm
10:00 PM 59.0°F15.0°C 54.5°F12.5°C 85% 4.1 mph E6.6 kmh E 8.9 mph14.3 kmh 30.27 in1025.1 mb 0.00 in0.0 mm 0.00 in0.0 mm 0.00 in0.0 mm
10:15 PM 59.0°F15.0°C 54.8°F12.7°C 86% 5.9 mph ESE9.5 kmh ESE 9.7 mph15.6 kmh 30.27 in1025.1 mb 0.00 in0.0 mm 0.00 in0.0 mm 0.00 in0.0 mm
10:30 PM 59.2°F15.1°C 55.3°F12.9°C 87% 2.1 mph ESE3.4 kmh ESE 5.7 mph9.2 kmh 30.27 in1025.1 mb 0.00 in0.0 mm 0.00 in0.0 mm 0.00 in0.0 mm
10:45 PM 58.8°F14.9°C 55.0°F12.8°C 87% 6.0 mph SE9.7 kmh SE 8.9 mph14.3 kmh 30.30 in1026.1 mb 0.00 in0.0 mm 0.00 in0.0 mm 0.00 in0.0 mm
11:00 PM 58.5°F14.7°C 54.6°F12.6°C 87% 5.0 mph ESE8.0 kmh ESE 7.9 mph12.7 kmh 30.27 in1025.1 mb 0.00 in0.0 mm 0.00 in0.0 mm 0.00 in0.0 mm
11:15 PM 57.9°F14.4°C 54.1°F12.3°C 87% 0.6 mph SE1.0 kmh SE 6.8 mph10.9 kmh 30.27 in1025.1 mb 0.00 in0.0 mm 0.00 in0.0 mm 0.00 in0.0 mm
11:30 PM 57.6°F14.2°C 53.7°F12.1°C 87% 2.4 mph SE3.9 kmh SE 7.5 mph12.1 kmh 30.27 in1025.1 mb 0.00 in0.0 mm 0.00 in0.0 mm 0.00 in0.0 mm
11:45 PM 57.4°F14.1°C 53.5°F11.9°C 87% 4.5 mph ESE7.2 kmh ESE 6.8 mph10.9 kmh 30.27 in1025.1 mb 0.00 in0.0 mm 0.00 in0.0 mm 0.00 in0.0 mm